Time;durP1;ratioP1;P1;durP2;ratioP2;P2;SDS_P1;SDS_P2;PMS_P1;PMS_P2;Temp;Humidity;BMP_temperature;BMP_pressure;BME280_temperature;BME280_humidity;BME280_pressure;Samples;Min_cycle;Max_cycle;Signal;HPM_P1;HPM_P2
2023/04/17 00:01:26;;;;;;;46.03;32.95;;;;;;;7.40;nan;102527.38;4991948;28;20034;-45
2023/04/17 00:03:52;;;;;;;43.85;31.88;;;;;;;7.76;nan;102591.38;4991197;28;20034;-45
2023/04/17 00:06:18;;;;;;;51.22;31.65;;;;;;;7.76;nan;102587.91;4989950;28;20113;-44
2023/04/17 00:08:44;;;;;;;47.80;31.33;;;;;;;7.81;nan;102594.94;5006200;28;20121;-47
2023/04/17 00:11:09;;;;;;;42.83;30.35;;;;;;;7.80;nan;102593.16;4990602;28;20077;-45
2023/04/17 00:13:35;;;;;;;48.08;30.73;;;;;;;7.74;nan;102603.63;4991409;28;20066;-46
2023/04/17 00:16:01;;;;;;;48.95;32.70;;;;;;;7.21;nan;102519.34;4991561;28;20065;-47
2023/04/17 00:18:26;;;;;;;48.45;32.22;;;;;;;7.56;nan;102581.66;4993798;28;20452;-45
2023/04/17 00:20:52;;;;;;;53.33;33.65;;;;;;;7.68;nan;102600.94;4992787;28;20100;-46
2023/04/17 00:23:17;;;;;;;51.67;34.20;;;;;;;7.35;nan;102540.44;4983427;28;20046;-47
2023/04/17 00:25:43;;;;;;;50.42;34.45;;;;;;;7.70;nan;102591.38;4993561;28;20048;-47
2023/04/17 00:28:08;;;;;;;49.78;32.45;;;;;;;7.65;nan;102587.81;4992591;28;20038;-47
2023/04/17 00:30:33;;;;;;;49.50;32.63;;;;;;;7.61;nan;102595.66;4992841;28;20081;-43
2023/04/17 00:32:59;;;;;;;50.33;33.13;;;;;;;7.61;nan;102603.53;4993328;28;20042;-47
2023/04/17 00:35:24;;;;;;;49.65;33.42;;;;;;;7.24;nan;102527.25;4994168;28;20034;-49
2023/04/17 00:37:49;;;;;;;51.28;32.58;;;;;;;7.61;nan;102590.41;4993315;28;20076;-49
2023/04/17 00:40:15;;;;;;;46.90;30.55;;;;;;;7.60;nan;102592.16;4992843;28;20122;-49
2023/04/17 00:42:40;;;;;;;53.08;33.53;;;;;;;7.18;nan;102531.56;4992925;28;20117;-48
2023/04/17 00:45:09;;;;;;;54.22;33.83;;;;;;;7.50;nan;102605.19;4994188;28;20458;-49
2023/04/17 00:47:35;;;;;;;53.38;32.90;;;;;;;7.16;nan;102533.28;4994006;28;20046;-48
2023/04/17 00:50:01;;;;;;;53.90;33.13;;;;;;;7.50;nan;102594.69;4994749;28;20450;-46
2023/04/17 00:52:31;;;;;;;58.50;34.38;;;;;;;7.54;nan;102605.22;4994830;28;20506;-49
2023/04/17 00:54:57;;;;;;;52.42;34.65;;;;;;;7.16;nan;102531.53;4993459;28;20039;-51
2023/04/17 00:57:23;;;;;;;54.70;35.75;;;;;;;7.45;nan;102584.16;4993990;28;20062;-46
2023/04/17 00:59:49;;;;;;;59.28;33.97;;;;;;;7.40;nan;102585.00;4992481;28;20078;-46
2023/04/17 01:02:15;;;;;;;54.65;34.53;;;;;;;7.06;nan;102534.09;4991456;28;20042;-46
2023/04/17 01:04:41;;;;;;;56.15;34.25;;;;;;;7.29;nan;102592.78;4994594;28;20476;-45
2023/04/17 01:07:06;;;;;;;51.78;34.65;;;;;;;7.34;nan;102594.56;4994231;28;20086;-45
2023/04/17 01:09:32;;;;;;;56.90;34.90;;;;;;;7.38;nan;102600.72;4990841;28;20049;-50
2023/04/17 01:12:17;;;;;;;59.58;36.38;;;;;;;7.36;nan;102603.31;4989249;28;20497;-43
2023/04/17 01:14:42;;;;;;;62.78;36.83;;;;;;;7.40;nan;102612.09;4994684;28;20041;-47
2023/04/17 01:17:09;;;;;;;65.82;37.35;;;;;;;7.38;nan;102605.97;5009513;28;20034;-46
2023/04/17 01:19:34;;;;;;;63.00;38.17;;;;;;;7.37;nan;102612.06;4993959;28;20148;-53
2023/04/17 01:21:59;;;;;;;67.93;38.60;;;;;;;7.34;nan;102607.66;5008934;28;20105;-46
2023/04/17 01:24:25;;;;;;;71.15;40.40;;;;;;;7.32;nan;102604.16;4993780;28;20047;-49
2023/04/17 01:26:50;;;;;;;67.82;37.88;;;;;;;7.36;nan;102605.03;4993861;28;20058;-44
2023/04/17 01:29:15;;;;;;;65.95;37.28;;;;;;;7.38;nan;102603.34;4993342;28;20061;-48
2023/04/17 01:31:41;;;;;;;64.00;36.45;;;;;;;7.41;nan;102610.34;4993410;28;20042;-47
2023/04/17 01:34:06;;;;;;;62.65;35.65;;;;;;;7.31;nan;102599.78;4991916;28;20072;-48
2023/04/17 01:36:31;;;;;;;63.33;36.97;;;;;;;7.27;nan;102597.97;4993679;28;20350;-43
2023/04/17 01:38:57;;;;;;;62.88;33.80;;;;;;;7.05;nan;102576.81;4993850;28;20121;-50
2023/04/17 01:41:22;;;;;;;59.38;35.30;;;;;;;7.13;nan;102594.38;4984065;28;20027;-47
2023/04/17 01:43:49;;;;;;;56.97;34.63;;;;;;;7.19;nan;102612.75;4972666;28;20054;-43
2023/04/17 01:46:14;;;;;;;62.50;36.50;;;;;;;7.22;nan;102601.44;4991796;28;20026;-45
2023/04/17 01:48:39;;;;;;;53.38;33.70;;;;;;;7.02;nan;102563.72;4991927;28;20046;-49
2023/04/17 01:51:05;;;;;;;49.30;32.40;;;;;;;7.13;nan;102603.97;4992387;28;20039;-45
2023/04/17 01:53:31;;;;;;;54.67;31.70;;;;;;;7.13;nan;102610.09;4991710;28;20038;-47
2023/04/17 01:55:56;;;;;;;50.42;32.50;;;;;;;7.13;nan;102610.09;4991838;28;20042;-48
2023/04/17 01:58:22;;;;;;;50.28;33.00;;;;;;;7.16;nan;102607.50;4991933;28;20038;-46
2023/04/17 02:00:48;;;;;;;59.50;33.08;;;;;;;6.80;nan;102547.78;4990982;28;20034;-46
2023/04/17 02:03:13;;;;;;;54.28;33.08;;;;;;;6.85;nan;102546.97;4993054;28;20531;-49
2023/04/17 02:05:39;;;;;;;58.05;33.15;;;;;;;7.11;nan;102603.06;4993090;28;20045;-47
2023/04/17 02:08:04;;;;;;;55.42;32.40;;;;;;;7.04;nan;102602.13;4975483;28;20537;-47
2023/04/17 02:10:30;;;;;;;55.55;33.22;;;;;;;7.14;nan;102601.38;4991968;28;20030;-47
2023/04/17 02:12:55;;;;;;;55.15;32.78;;;;;;;7.17;nan;102611.88;4992106;28;20046;-45
2023/04/17 02:15:20;;;;;;;55.58;33.78;;;;;;;7.14;nan;102609.22;4991599;28;20053;-49
2023/04/17 02:17:46;;;;;;;57.20;33.55;;;;;;;6.88;nan;102571.44;4992525;28;20045;-47
2023/04/17 02:20:11;;;;;;;58.08;33.20;;;;;;;7.08;nan;102582.97;4991983;28;20493;-49
2023/04/17 02:22:37;;;;;;;62.70;35.83;;;;;;;6.87;nan;102540.88;4992693;28;20134;-47
2023/04/17 02:25:02;;;;;;;60.72;34.65;;;;;;;7.11;nan;102592.59;4991086;28;20153;-48
2023/04/17 02:27:28;;;;;;;57.80;34.90;;;;;;;6.95;nan;102554.91;4992545;28;20034;-46
2023/04/17 02:29:54;;;;;;;63.50;37.20;;;;;;;7.20;nan;102601.44;4990712;28;20038;-50
2023/04/17 02:32:19;;;;;;;71.45;37.28;;;;;;;6.78;nan;102527.69;4972055;28;20035;-47
2023/04/17 02:34:45;;;;;;;70.93;38.17;;;;;;;7.11;nan;102582.13;4991289;28;20034;-48
2023/04/17 02:37:10;;;;;;;66.75;36.80;;;;;;;7.24;nan;102597.06;4991373;28;20042;-45
2023/04/17 02:39:35;;;;;;;64.95;37.88;;;;;;;7.24;nan;102604.94;4993022;28;20116;-45
2023/04/17 02:42:01;;;;;;;63.78;37.13;;;;;;;7.19;nan;102606.63;4992037;28;20045;-45
2023/04/17 02:44:27;;;;;;;60.50;35.20;;;;;;;7.15;nan;102602.25;4990422;28;20109;-46
2023/04/17 02:46:52;;;;;;;56.35;35.75;;;;;;;7.10;nan;102598.69;4992789;28;20076;-44
2023/04/17 02:49:18;;;;;;;53.92;34.58;;;;;;;6.74;nan;102539.00;4992136;28;20034;-46
2023/04/17 02:51:43;;;;;;;59.78;35.50;;;;;;;6.73;nan;102545.97;4990162;28;20476;-47
2023/04/17 02:54:08;;;;;;;60.13;34.22;;;;;;;6.71;nan;102531.13;4992215;28;20038;-45
2023/04/17 02:56:34;;;;;;;57.85;34.03;;;;;;;6.94;nan;102566.25;4991785;28;20042;-52
2023/04/17 02:58:59;;;;;;;60.72;35.22;;;;;;;7.13;nan;102598.72;4989700;28;20121;-47
2023/04/17 03:01:25;;;;;;;55.00;33.67;;;;;;;6.74;nan;102528.53;4988891;28;20053;-46
2023/04/17 03:03:51;;;;;;;62.20;37.13;;;;;;;7.14;nan;102587.41;4991724;28;20046;-44
2023/04/17 03:06:16;;;;;;;62.65;36.72;;;;;;;7.18;nan;102594.44;4992184;28;20046;-49
2023/04/17 03:08:42;;;;;;;64.82;37.53;;;;;;;7.06;nan;102573.34;4992541;28;20042;-47
2023/04/17 03:11:07;;;;;;;63.70;36.65;;;;;;;7.19;nan;102601.41;4991082;28;20038;-47
2023/04/17 03:13:35;;;;;;;63.92;38.15;;;;;;;7.15;nan;102591.78;4991386;28;20073;-47
2023/04/17 03:16:00;;;;;;;60.08;36.42;;;;;;;7.06;nan;102582.09;4991826;28;20042;-48
2023/04/17 03:18:25;;;;;;;59.60;33.65;;;;;;;6.77;nan;102529.44;4990223;28;20398;-45
2023/04/17 03:20:51;;;;;;;54.28;34.53;;;;;;;6.71;nan;102515.44;4990727;28;20043;-46
2023/04/17 03:23:17;;;;;;;48.17;31.08;;;;;;;7.18;nan;102590.03;4991788;28;20041;-45
2023/04/17 03:25:42;;;;;;;53.90;32.17;;;;;;;6.86;nan;102535.66;4992549;28;20112;-50
2023/04/17 03:28:07;;;;;;;51.85;32.92;;;;;;;7.17;nan;102595.28;5007380;28;20042;-47
2023/04/17 03:30:33;;;;;;;53.17;33.50;;;;;;;7.19;nan;102594.44;4992389;28;20538;-44
2023/04/17 03:32:58;;;;;;;52.60;33.65;;;;;;;7.19;nan;102599.66;4986608;28;20039;-49
2023/04/17 03:35:23;;;;;;;52.47;32.30;;;;;;;7.19;nan;102598.78;4988129;28;20043;-43
2023/04/17 03:37:49;;;;;;;64.10;34.72;;;;;;;6.82;nan;102533.84;4990462;28;20053;-50
2023/04/17 03:40:15;;;;;;;52.55;32.53;;;;;;;7.13;nan;102591.75;4991528;28;20133;-47
2023/04/17 03:42:40;;;;;;;48.67;33.40;;;;;;;7.11;nan;102593.47;4992383;28;20061;-47
2023/04/17 03:45:06;;;;;;;52.70;33.72;;;;;;;6.69;nan;102531.09;4990794;28;20037;-44
2023/04/17 03:47:31;;;;;;;48.78;32.20;;;;;;;7.10;nan;102601.31;4990140;28;20034;-47
2023/04/17 03:49:57;;;;;;;44.58;29.83;;;;;;;6.69;nan;102535.44;4992426;28;20097;-47
2023/04/17 03:52:22;;;;;;;48.47;30.42;;;;;;;6.78;nan;102532.94;4991030;28;20050;-50
2023/04/17 03:54:47;;;;;;;45.92;28.75;;;;;;;7.03;nan;102576.81;4992344;28;20069;-44
2023/04/17 03:57:13;;;;;;;40.08;28.13;;;;;;;7.09;nan;102597.81;4991757;28;20129;-50
2023/04/17 03:59:39;;;;;;;46.88;29.73;;;;;;;7.13;nan;102601.34;4974962;28;20041;-48
2023/04/17 04:02:04;;;;;;;49.13;29.67;;;;;;;7.13;nan;102612.69;4990355;28;20087;-45
2023/04/17 04:04:29;;;;;;;45.88;30.48;;;;;;;6.74;nan;102532.00;4992193;28;20474;-43
2023/04/17 04:06:56;;;;;;;49.35;32.08;;;;;;;7.10;nan;102602.19;4991365;28;20104;-50
2023/04/17 04:09:22;;;;;;;47.30;31.75;;;;;;;7.12;nan;102600.47;4993132;28;20034;-44
2023/04/17 04:11:47;;;;;;;52.55;32.28;;;;;;;6.95;nan;102570.63;4994954;28;20065;-43
2023/04/17 04:14:13;;;;;;;49.38;31.58;;;;;;;6.67;nan;102521.47;4995231;28;20117;-45
2023/04/17 04:16:38;;;;;;;46.90;30.73;;;;;;;6.78;nan;102530.31;4995001;28;20509;-47
2023/04/17 04:19:04;;;;;;;51.70;32.03;;;;;;;7.19;nan;102604.91;4993775;28;20051;-50
2023/04/17 04:21:29;;;;;;;55.20;32.08;;;;;;;7.21;nan;102604.91;4992469;28;20058;-47
2023/04/17 04:23:55;;;;;;;51.35;30.77;;;;;;;7.18;nan;102602.28;4995567;28;20034;-44
2023/04/17 04:26:20;;;;;;;54.80;32.78;;;;;;;7.22;nan;102607.56;4994176;28;20110;-50
2023/04/17 04:28:46;;;;;;;53.40;33.20;;;;;;;6.85;nan;102539.09;4993583;28;20509;-48
2023/04/17 04:31:13;;;;;;;57.45;34.45;;;;;;;6.79;nan;102526.84;4994012;28;20521;-46
2023/04/17 04:33:39;;;;;;;55.90;33.97;;;;;;;7.20;nan;102618.88;4994751;28;20133;-46
2023/04/17 04:36:04;;;;;;;63.72;34.55;;;;;;;6.86;nan;102546.97;4992986;28;20041;-45
2023/04/17 04:38:31;;;;;;;61.22;34.88;;;;;;;7.21;nan;102615.38;4992928;28;20125;-43
2023/04/17 04:41:00;;;;;;;55.92;32.85;;;;;;;7.22;nan;102612.78;4993245;28;20129;-46
2023/04/17 04:43:28;;;;;;;60.53;32.97;;;;;;;7.21;nan;102610.13;4993544;28;20045;-46
2023/04/17 04:45:54;;;;;;;61.72;34.22;;;;;;;7.22;nan;102618.03;4990830;28;20030;-46
2023/04/17 04:48:20;;;;;;;60.88;35.28;;;;;;;7.21;nan;102613.63;4994529;28;20042;-46
2023/04/17 04:50:45;;;;;;;58.40;34.25;;;;;;;6.86;nan;102548.72;4993682;28;20477;-50
2023/04/17 04:53:11;;;;;;;60.15;34.65;;;;;;;7.20;nan;102617.16;4995164;28;20061;-46
2023/04/17 04:55:36;;;;;;;54.85;34.17;;;;;;;7.21;nan;102616.25;4994638;28;20057;-45
2023/04/17 04:58:01;;;;;;;58.75;35.13;;;;;;;6.99;nan;102572.41;4994807;28;20031;-46
2023/04/17 05:00:27;;;;;;;58.55;34.13;;;;;;;7.19;nan;102618.00;4994848;28;20379;-47
2023/04/17 05:02:52;;;;;;;57.72;35.22;;;;;;;7.22;nan;102628.50;4994824;28;20402;-47
2023/04/17 05:05:17;;;;;;;61.78;35.50;;;;;;;7.26;nan;102622.44;4991070;28;20042;-49
2023/04/17 05:07:43;;;;;;;55.25;34.65;;;;;;;6.89;nan;102560.09;4993793;28;20081;-44
2023/04/17 05:10:08;;;;;;;59.35;35.35;;;;;;;7.32;nan;102629.47;4993824;28;20062;-43
2023/04/17 05:12:34;;;;;;;53.47;32.90;;;;;;;7.32;nan;102613.75;4993591;28;20030;-44
2023/04/17 05:14:59;;;;;;;56.40;34.38;;;;;;;7.32;nan;102624.25;4994076;28;20038;-47
2023/04/17 05:17:25;;;;;;;49.45;31.70;;;;;;;7.26;nan;102624.19;4991675;28;20037;-46
2023/04/17 05:19:50;;;;;;;53.05;33.17;;;;;;;7.38;nan;102640.88;4991671;28;20185;-49
2023/04/17 05:22:15;;;;;;;54.95;33.88;;;;;;;7.40;nan;102634.78;4992496;28;20049;-43
2023/04/17 05:24:41;;;;;;;55.05;33.60;;;;;;;7.37;nan;102627.78;4994324;28;20034;-47
2023/04/17 05:27:07;;;;;;;50.53;32.55;;;;;;;7.45;nan;102640.94;4994232;28;20038;-45
2023/04/17 05:29:32;;;;;;;49.47;31.85;;;;;;;7.07;nan;102580.31;4994072;28;20034;-44
2023/04/17 05:31:57;;;;;;;49.25;32.25;;;;;;;7.46;nan;102653.16;4992764;28;20034;-45
2023/04/17 05:34:23;;;;;;;51.15;32.97;;;;;;;7.50;nan;102655.81;4993268;28;20482;-48
2023/04/17 05:36:48;;;;;;;51.63;33.03;;;;;;;7.52;nan;102645.38;4991369;28;20482;-47
2023/04/17 05:39:13;;;;;;;50.90;33.25;;;;;;;7.50;nan;102641.88;4993827;28;20034;-46
2023/04/17 05:41:39;;;;;;;50.15;31.77;;;;;;;7.55;nan;102642.78;4992842;28;20048;-49
2023/04/17 05:44:05;;;;;;;45.70;32.17;;;;;;;7.62;nan;102639.31;4992373;28;20122;-43
2023/04/17 05:46:30;;;;;;;50.15;32.42;;;;;;;7.25;nan;102572.66;4990427;28;20478;-48
2023/04/17 05:48:56;;;;;;;47.13;31.20;;;;;;;7.30;nan;102563.97;4992947;28;20038;-46
2023/04/17 05:51:21;;;;;;;40.85;30.17;;;;;;;7.32;nan;102567.50;4991733;28;20097;-48
2023/04/17 05:53:47;;;;;;;44.17;30.15;;;;;;;7.78;nan;102641.22;4993502;28;20041;-46
2023/04/17 05:56:13;;;;;;;42.13;30.95;;;;;;;7.76;nan;102641.19;4993522;28;20042;-44
2023/04/17 05:58:38;;;;;;;46.88;30.65;;;;;;;7.81;nan;102630.75;4993236;28;20519;-48
2023/04/17 06:01:07;;;;;;;41.65;30.45;;;;;;;7.89;nan;102661.41;4993443;28;20035;-47
2023/04/17 06:03:32;;;;;;;43.53;29.00;;;;;;;7.64;nan;102608.78;4992128;28;20401;-49
2023/04/17 06:05:58;;;;;;;41.50;29.92;;;;;;;8.01;nan;102651.88;4992393;28;20026;-46
2023/04/17 06:08:23;;;;;;;41.67;29.00;;;;;;;7.64;nan;102593.06;4993556;28;20038;-48
2023/04/17 06:10:50;;;;;;;43.65;30.23;;;;;;;7.63;nan;102596.53;4993086;28;20039;-44
2023/04/17 06:13:16;;;;;;;39.75;29.42;;;;;;;7.65;nan;102607.91;4993434;28;20118;-50
2023/04/17 06:15:42;;;;;;;43.03;28.17;;;;;;;7.98;nan;102651.84;4993103;28;20173;-43
2023/04/17 06:18:07;;;;;;;38.65;28.13;;;;;;;7.99;nan;102666.72;4993082;28;20039;-45
2023/04/17 06:20:32;;;;;;;38.80;29.25;;;;;;;7.95;nan;102647.47;4993004;28;20057;-46
2023/04/17 06:22:58;;;;;;;37.33;27.15;;;;;;;7.73;nan;102607.13;5007780;28;20031;-49
2023/04/17 06:25:23;;;;;;;37.55;26.95;;;;;;;8.09;nan;102661.53;4991818;28;20445;-48
2023/04/17 06:27:48;;;;;;;36.92;27.05;;;;;;;8.16;nan;102659.84;4993159;28;20039;-50
2023/04/17 06:30:14;;;;;;;39.33;27.88;;;;;;;8.20;nan;102659.84;4993107;28;20038;-50
2023/04/17 06:32:42;;;;;;;38.13;27.92;;;;;;;8.14;nan;102644.13;4992414;28;20076;-47
2023/04/17 06:35:10;;;;;;;32.47;25.50;;;;;;;8.32;nan;102659.09;4992872;28;20038;-45
2023/04/17 06:37:36;;;;;;;37.45;28.13;;;;;;;8.34;nan;102666.13;4997239;28;20043;-55
2023/04/17 06:40:02;;;;;;;34.63;27.20;;;;;;;8.27;nan;102671.28;4990449;28;20125;-45
2023/04/17 06:42:27;;;;;;;40.92;28.15;;;;;;;8.22;nan;102686.13;4992484;28;20121;-47
2023/04/17 06:44:53;;;;;;;34.78;27.13;;;;;;;8.18;nan;102676.47;4992463;28;20142;-47
2023/04/17 06:47:18;;;;;;;33.88;25.58;;;;;;;7.78;nan;102605.41;5006888;28;20034;-46
2023/04/17 06:49:44;;;;;;;31.00;24.05;;;;;;;8.33;nan;102684.47;4992813;28;20034;-48
2023/04/17 06:52:10;;;;;;;29.85;24.33;;;;;;;8.14;nan;102628.38;5007978;28;20034;-45
2023/04/17 06:54:35;;;;;;;31.70;24.40;;;;;;;8.53;nan;102689.81;4992603;28;20069;-48
2023/04/17 06:57:04;;;;;;;33.03;24.77;;;;;;;8.51;nan;102702.94;4992670;28;20038;-47
2023/04/17 06:59:30;;;;;;;31.58;24.33;;;;;;;8.55;nan;102690.72;4992737;28;20073;-43
2023/04/17 07:01:55;;;;;;;29.98;22.95;;;;;;;8.54;nan;102697.72;4974873;28;20528;-48
2023/04/17 07:04:21;;;;;;;30.88;23.67;;;;;;;8.61;nan;102717.00;4992738;28;20720;-45
2023/04/17 07:06:46;;;;;;;29.63;24.67;;;;;;;8.72;nan;102702.19;5008008;28;20041;-45
2023/04/17 07:09:11;;;;;;;30.17;25.33;;;;;;;8.72;nan;102704.81;4992624;28;20065;-45
2023/04/17 07:11:37;;;;;;;36.90;27.05;;;;;;;8.64;nan;102702.13;4992635;28;20101;-44
2023/04/17 07:14:02;;;;;;;38.00;30.17;;;;;;;8.53;nan;102695.94;4992824;28;20156;-44
2023/04/17 07:16:27;;;;;;;39.20;29.58;;;;;;;8.63;nan;102715.25;4992501;28;20077;-49
2023/04/17 07:18:53;;;;;;;39.25;29.58;;;;;;;8.30;nan;102642.47;4992465;28;20066;-47
2023/04/17 07:21:18;;;;;;;41.42;30.25;;;;;;;8.78;nan;102715.34;4992312;28;20133;-45
2023/04/17 07:23:43;;;;;;;39.33;29.98;;;;;;;8.69;nan;102708.31;4992612;28;20034;-45
2023/04/17 07:26:11;;;;;;;38.53;29.90;;;;;;;8.61;nan;102682.88;4992434;28;20031;-46
2023/04/17 07:28:38;;;;;;;38.65;29.65;;;;;;;8.32;nan;102641.59;4992434;28;20113;-47
2023/04/17 07:31:07;;;;;;;40.10;30.83;;;;;;;8.36;nan;102648.63;5007234;28;20530;-45
2023/04/17 07:33:33;;;;;;;37.35;30.58;;;;;;;8.35;nan;102638.13;4992234;28;20557;-47
2023/04/17 07:35:59;;;;;;;42.35;30.67;;;;;;;8.86;nan;102709.25;4991317;28;20100;-48
2023/04/17 07:38:24;;;;;;;38.45;28.55;;;;;;;8.82;nan;102711.84;4992253;28;20478;-48
2023/04/17 07:40:50;;;;;;;43.67;31.10;;;;;;;8.85;nan;102717.13;4991911;28;20039;-44
2023/04/17 07:43:15;;;;;;;41.05;31.55;;;;;;;8.78;nan;102725.84;4992343;28;20031;-44
2023/04/17 07:45:40;;;;;;;38.88;31.60;;;;;;;8.72;nan;102721.44;4993959;28;20030;-44
2023/04/17 07:48:06;;;;;;;39.03;31.20;;;;;;;8.74;nan;102721.44;4994611;28;20477;-47
2023/04/17 07:50:31;;;;;;;38.13;31.35;;;;;;;8.85;nan;102722.38;4994053;28;20066;-43
2023/04/17 07:52:57;;;;;;;36.97;29.33;;;;;;;8.82;nan;102730.22;4992670;28;20053;-45
2023/04/17 07:55:22;;;;;;;34.53;27.88;;;;;;;8.49;nan;102652.22;4993550;28;20050;-42
2023/04/17 07:57:50;;;;;;;32.85;24.90;;;;;;;8.93;nan;102733.81;4993998;28;20455;-48
2023/04/17 08:00:16;;;;;;;30.35;25.92;;;;;;;8.60;nan;102673.25;4994197;28;20037;-46
2023/04/17 08:02:41;;;;;;;31.58;25.35;;;;;;;8.98;nan;102732.06;4992916;28;20038;-45
2023/04/17 08:05:08;;;;;;;33.17;26.42;;;;;;;8.97;nan;102740.81;4993296;28;20031;-44
2023/04/17 08:07:33;;;;;;;34.25;26.85;;;;;;;8.91;nan;102735.53;4994360;28;20398;-46
2023/04/17 08:09:59;;;;;;;32.58;26.30;;;;;;;8.97;nan;102740.81;4994530;28;20037;-45
2023/04/17 08:12:24;;;;;;;34.90;28.02;;;;;;;8.60;nan;102670.63;4992893;28;20473;-46
2023/04/17 08:14:49;;;;;;;33.40;26.13;;;;;;;8.96;nan;102728.56;4994155;28;20177;-49
2023/04/17 08:17:19;;;;;;;37.33;27.50;;;;;;;8.61;nan;102680.25;4994551;28;20038;-45
2023/04/17 08:19:44;;;;;;;33.38;26.23;;;;;;;9.00;nan;102740.81;4994415;28;20054;-45
2023/04/17 08:22:12;;;;;;;33.15;25.30;;;;;;;8.87;nan;102736.41;4992819;28;20034;-43
2023/04/17 08:24:38;;;;;;;32.47;26.20;;;;;;;8.81;nan;102725.88;5008876;28;20124;-45
2023/04/17 08:27:04;;;;;;;32.15;25.52;;;;;;;8.96;nan;102723.31;4994037;28;20086;-51
2023/04/17 08:29:29;;;;;;;30.05;24.20;;;;;;;9.13;nan;102726.88;4994062;28;20042;-45
2023/04/17 08:31:54;;;;;;;30.40;24.63;;;;;;;9.24;nan;102705.88;4993353;28;20034;-45
2023/04/17 08:34:20;;;;;;;31.20;24.50;;;;;;;9.10;nan;102655.94;4992654;28;20462;-48
2023/04/17 08:36:46;;;;;;;28.65;24.08;;;;;;;9.35;nan;102657.72;4993807;28;20030;-44
2023/04/17 08:39:13;;;;;;;30.25;23.33;;;;;;;9.66;nan;102677.03;4993565;28;20109;-48
2023/04/17 08:41:46;;;;;;;28.83;23.80;;;;;;;9.86;nan;102705.97;4994214;28;20034;-47
2023/04/17 08:44:11;;;;;;;29.23;23.05;;;;;;;10.20;nan;102738.44;4992718;28;20077;-45
2023/04/17 08:46:37;;;;;;;28.27;24.17;;;;;;;10.20;nan;102749.84;4993790;28;20042;-45
2023/04/17 08:49:03;;;;;;;27.40;22.73;;;;;;;10.21;nan;102756.00;4991387;28;20043;-44
2023/04/17 08:51:28;;;;;;;31.80;24.35;;;;;;;10.05;nan;102728.75;4993373;28;20485;-48
2023/04/17 08:53:53;;;;;;;28.60;23.48;;;;;;;10.15;nan;102749.88;4992815;28;20271;-43
2023/04/17 08:56:20;;;;;;;28.90;24.02;;;;;;;9.86;nan;102696.34;4992140;28;20125;-45
2023/04/17 08:58:45;;;;;;;31.77;23.05;;;;;;;9.99;nan;102732.28;4993561;28;20035;-46
2023/04/17 09:01:15;;;;;;;28.55;23.15;;;;;;;9.99;nan;102726.13;5007660;28;20039;-48
2023/04/17 09:03:41;;;;;;;32.17;24.80;;;;;;;10.05;nan;102715.59;4993349;28;20035;-48
2023/04/17 09:06:09;;;;;;;29.05;23.58;;;;;;;10.10;nan;102703.31;4993260;28;20042;-45
2023/04/17 09:08:34;;;;;;;34.53;25.52;;;;;;;10.32;nan;102752.47;4992054;28;20061;-48
2023/04/17 09:10:59;;;;;;;37.15;26.23;;;;;;;10.25;nan;102755.09;4991555;28;20070;-43
2023/04/17 09:13:26;;;;;;;33.63;25.55;;;;;;;10.29;nan;102752.47;4990463;28;20057;-48
2023/04/17 09:16:06;;;;;;;30.85;23.88;;;;;;;10.02;nan;102703.34;4992096;28;20029;-50
2023/04/17 09:18:33;;;;;;;28.87;23.43;;;;;;;10.59;nan;102767.38;4992737;28;20121;-47
2023/04/17 09:20:59;;;;;;;32.15;23.48;;;;;;;10.91;nan;102776.06;5007950;28;20054;-43
2023/04/17 09:23:26;;;;;;;27.50;22.73;;;;;;;10.87;nan;102762.88;5007664;28;20038;-47
2023/04/17 09:26:12;;;;;;;27.38;22.63;;;;;;;11.00;nan;102767.25;5007333;28;20041;-48
2023/04/17 09:28:38;;;;;;;28.27;22.58;;;;;;;11.12;nan;102775.97;4992907;28;20031;-47
2023/04/17 09:31:25;;;;;;;26.17;21.77;;;;;;;10.97;nan;102770.78;4992290;28;20030;-47
2023/04/17 09:33:58;;;;;;;28.40;22.85;;;;;;;11.11;nan;102781.25;4992199;28;20050;-48
2023/04/17 09:36:26;;;;;;;25.17;22.27;;;;;;;10.70;nan;102731.34;4993087;28;20034;-45
2023/04/17 09:38:52;;;;;;;29.63;22.98;;;;;;;11.37;nan;102795.19;4992722;28;20057;-46
2023/04/17 09:41:37;;;;;;;27.13;22.20;;;;;;;11.40;nan;102787.28;4991489;28;20042;-44
2023/04/17 09:44:06;;;;;;;26.17;22.27;;;;;;;11.57;nan;102774.00;4992415;28;20026;-47
2023/04/17 09:46:44;;;;;;;28.50;21.85;;;;;;;11.39;nan;102788.16;4991187;28;20113;-48
2023/04/17 09:49:48;;;;;;;26.27;21.08;;;;;;;11.53;nan;102781.03;4991884;28;20332;-48
2023/04/17 09:52:14;;;;;;;26.67;21.45;;;;;;;11.13;nan;102734.69;4992419;28;20034;-48
2023/04/17 09:54:40;;;;;;;26.05;21.48;;;;;;;11.50;nan;102769.66;5007692;28;20112;-46
2023/04/17 09:57:07;;;;;;;25.30;20.35;;;;;;;11.77;nan;102772.13;4992204;28;20117;-49
2023/04/17 09:59:33;;;;;;;27.05;21.42;;;;;;;11.58;nan;102738.84;4991711;28;20490;-42
2023/04/17 10:02:00;;;;;;;24.35;19.77;;;;;;;11.63;nan;102729.13;4990810;28;20062;-51
2023/04/17 10:04:27;;;;;;;27.58;20.67;;;;;;;12.32;nan;102796.34;4990516;28;20523;-43
2023/04/17 10:06:56;;;;;;;23.58;20.50;;;;;;;12.58;nan;102793.50;5006817;28;20034;-47
2023/04/17 10:09:21;;;;;;;22.65;19.50;;;;;;;12.79;nan;102786.19;4991951;28;20030;-47
2023/04/17 10:11:47;;;;;;;23.95;19.60;;;;;;;13.26;nan;102801.56;4991783;28;20073;-48
2023/04/17 10:14:19;;;;;;;22.88;18.88;;;;;;;13.57;nan;102777.34;4990753;28;20045;-48
2023/04/17 10:16:46;;;;;;;22.38;18.90;;;;;;;14.01;nan;102786.34;4990166;28;20044;-48
2023/04/17 10:19:29;;;;;;;20.98;18.77;;;;;;;14.32;nan;102752.34;4990794;28;20385;-46
2023/04/17 10:22:17;;;;;;;22.35;19.95;;;;;;;14.41;nan;102804.28;4990604;28;20034;-51
2023/04/17 10:24:50;;;;;;;24.15;20.05;;;;;;;14.49;nan;102799.72;4991592;28;20031;-47
2023/04/17 10:27:25;;;;;;;22.45;18.58;;;;;;;14.54;nan;102805.81;4991620;28;20489;-45
2023/04/17 10:29:54;;;;;;;21.27;19.05;;;;;;;14.61;nan;102805.69;4990056;28;20034;-49
2023/04/17 10:32:22;;;;;;;22.40;19.42;;;;;;;14.75;nan;102802.78;4990836;28;20057;-50
2023/04/17 10:34:48;;;;;;;24.02;18.48;;;;;;;13.95;nan;102770.56;4991630;28;20031;-45
2023/04/17 10:37:16;;;;;;;23.38;17.63;;;;;;;13.58;nan;102758.78;4991741;28;20061;-44
2023/04/17 10:39:52;;;;;;;20.42;18.23;;;;;;;13.53;nan;102798.56;4991542;28;20033;-46
2023/04/17 10:42:19;;;;;;;20.38;18.05;;;;;;;13.52;nan;102727.13;4991504;28;20034;-45
2023/04/17 10:44:45;;;;;;;19.48;17.33;;;;;;;14.46;nan;102734.41;4991085;28;20047;-45
2023/04/17 10:47:13;;;;;;;21.80;19.50;;;;;;;15.44;nan;102747.41;4990456;28;20049;-47
2023/04/17 10:49:50;;;;;;;20.75;18.33;;;;;;;15.25;nan;102740.78;4988426;28;20038;-45
2023/04/17 10:52:47;;;;;;;19.48;17.48;;;;;;;16.25;nan;102802.19;4972941;28;20508;-45
2023/04/17 10:55:15;;;;;;;18.88;16.85;;;;;;;15.97;nan;102809.94;4956845;28;20593;-47
2023/04/17 10:58:01;;;;;;;18.70;16.70;;;;;;;15.90;nan;102792.41;4990442;28;20053;-48
2023/04/17 11:00:35;;;;;;;20.00;17.92;;;;;;;16.57;nan;102737.59;4990139;28;20035;-45
2023/04/17 11:03:01;;;;;;;17.67;15.85;;;;;;;17.17;nan;102774.88;4990444;28;20034;-46
2023/04/17 11:05:27;;;;;;;19.63;16.73;;;;;;;18.41;nan;102777.13;4991390;28;20052;-46
2023/04/17 11:07:53;;;;;;;19.02;16.60;;;;;;;18.10;nan;102795.06;4991107;28;20390;-46
2023/04/17 11:10:19;;;;;;;18.58;16.67;;;;;;;17.13;nan;102765.25;4989584;28;20035;-45
2023/04/17 11:12:52;;;;;;;18.02;16.13;;;;;;;18.33;nan;102783.66;4989618;28;20042;-46
2023/04/17 11:15:30;;;;;;;17.35;15.60;;;;;;;18.34;nan;102786.25;4989912;28;20030;-45
2023/04/17 11:17:57;;;;;;;16.90;15.18;;;;;;;19.12;nan;102760.34;5006312;28;20027;-49
2023/04/17 11:20:24;;;;;;;16.77;15.05;;;;;;;19.02;nan;102794.53;4993100;28;20116;-45
2023/04/17 11:22:50;;;;;;;18.33;14.30;;;;;;;19.16;nan;102750.44;4992460;28;20109;-47
2023/04/17 11:25:26;;;;;;;15.75;14.13;;;;;;;20.01;nan;102812.97;4993578;28;20114;-46
2023/04/17 11:27:55;;;;;;;15.45;13.82;;;;;;;20.54;nan;102785.81;4993790;28;20477;-46
2023/04/17 11:30:29;;;;;;;17.40;15.65;;;;;;;20.16;nan;102774.03;5009946;28;20045;-48